sensor_id;sensor_type;location;lat;lon;timestamp;P1;durP1;ratioP1;P2;durP2;ratioP2
55461;SDS011;41327;45.102;20.624;2024-01-07T00:01:45;4.50;;;4.20;;
55461;SDS011;41327;45.102;20.624;2024-01-07T00:04:11;5.57;;;4.20;;
55461;SDS011;41327;45.102;20.624;2024-01-07T00:06:37;3.88;;;3.67;;
55461;SDS011;41327;45.102;20.624;2024-01-07T00:09:02;3.90;;;3.70;;
55461;SDS011;41327;45.102;20.624;2024-01-07T00:11:28;4.35;;;4.00;;
55461;SDS011;41327;45.102;20.624;2024-01-07T00:13:53;4.65;;;4.35;;
55461;SDS011;41327;45.102;20.624;2024-01-07T00:16:19;4.35;;;3.95;;
55461;SDS011;41327;45.102;20.624;2024-01-07T00:18:44;4.30;;;4.10;;
55461;SDS011;41327;45.102;20.624;2024-01-07T00:21:10;3.92;;;3.72;;
55461;SDS011;41327;45.102;20.624;2024-01-07T00:23:35;5.30;;;4.28;;
55461;SDS011;41327;45.102;20.624;2024-01-07T00:26:01;4.30;;;4.00;;
55461;SDS011;41327;45.102;20.624;2024-01-07T00:28:28;4.30;;;4.03;;
55461;SDS011;41327;45.102;20.624;2024-01-07T00:30:54;4.18;;;3.92;;
55461;SDS011;41327;45.102;20.624;2024-01-07T00:33:19;4.32;;;4.00;;
55461;SDS011;41327;45.102;20.624;2024-01-07T00:35:45;4.40;;;4.20;;
55461;SDS011;41327;45.102;20.624;2024-01-07T00:38:10;4.30;;;4.00;;
55461;SDS011;41327;45.102;20.624;2024-01-07T00:40:36;4.43;;;3.92;;
55461;SDS011;41327;45.102;20.624;2024-01-07T00:43:03;4.32;;;3.90;;
55461;SDS011;41327;45.102;20.624;2024-01-07T00:45:28;5.00;;;4.60;;
55461;SDS011;41327;45.102;20.624;2024-01-07T00:47:54;4.45;;;4.10;;
55461;SDS011;41327;45.102;20.624;2024-01-07T00:50:20;4.75;;;4.38;;
55461;SDS011;41327;45.102;20.624;2024-01-07T00:52:45;3.85;;;3.65;;
55461;SDS011;41327;45.102;20.624;2024-01-07T00:55:11;6.70;;;4.13;;
55461;SDS011;41327;45.102;20.624;2024-01-07T00:57:37;3.42;;;3.22;;
55461;SDS011;41327;45.102;20.624;2024-01-07T01:00:06;7.82;;;3.78;;
55461;SDS011;41327;45.102;20.624;2024-01-07T01:02:32;4.38;;;4.07;;
55461;SDS011;41327;45.102;20.624;2024-01-07T01:04:57;4.43;;;4.13;;
55461;SDS011;41327;45.102;20.624;2024-01-07T01:07:23;4.90;;;4.50;;
55461;SDS011;41327;45.102;20.624;2024-01-07T01:09:49;4.53;;;4.20;;
55461;SDS011;41327;45.102;20.624;2024-01-07T01:12:14;4.38;;;4.07;;
55461;SDS011;41327;45.102;20.624;2024-01-07T01:14:40;4.03;;;3.75;;
55461;SDS011;41327;45.102;20.624;2024-01-07T01:17:06;3.50;;;3.33;;
55461;SDS011;41327;45.102;20.624;2024-01-07T01:19:31;6.20;;;5.03;;
55461;SDS011;41327;45.102;20.624;2024-01-07T01:21:57;4.93;;;4.53;;
55461;SDS011;41327;45.102;20.624;2024-01-07T01:24:23;4.20;;;3.90;;
55461;SDS011;41327;45.102;20.624;2024-01-07T01:26:48;4.00;;;3.80;;
55461;SDS011;41327;45.102;20.624;2024-01-07T01:29:13;4.70;;;4.40;;
55461;SDS011;41327;45.102;20.624;2024-01-07T01:31:39;4.63;;;3.75;;
55461;SDS011;41327;45.102;20.624;2024-01-07T01:34:05;5.32;;;4.72;;
55461;SDS011;41327;45.102;20.624;2024-01-07T01:36:30;4.32;;;4.10;;
55461;SDS011;41327;45.102;20.624;2024-01-07T01:38:56;4.20;;;3.90;;
55461;SDS011;41327;45.102;20.624;2024-01-07T01:41:22;4.90;;;4.60;;
55461;SDS011;41327;45.102;20.624;2024-01-07T01:43:48;5.90;;;4.57;;
55461;SDS011;41327;45.102;20.624;2024-01-07T01:46:13;4.60;;;4.30;;
55461;SDS011;41327;45.102;20.624;2024-01-07T01:48:39;4.47;;;4.18;;
55461;SDS011;41327;45.102;20.624;2024-01-07T01:51:05;4.15;;;3.95;;
55461;SDS011;41327;45.102;20.624;2024-01-07T01:53:30;4.45;;;3.83;;
55461;SDS011;41327;45.102;20.624;2024-01-07T01:56:02;5.93;;;4.82;;
55461;SDS011;41327;45.102;20.624;2024-01-07T01:58:33;4.82;;;4.47;;
55461;SDS011;41327;45.102;20.624;2024-01-07T02:00:58;4.85;;;4.45;;
55461;SDS011;41327;45.102;20.624;2024-01-07T02:03:24;4.63;;;4.22;;
55461;SDS011;41327;45.102;20.624;2024-01-07T02:05:51;4.43;;;4.13;;
55461;SDS011;41327;45.102;20.624;2024-01-07T02:08:17;4.38;;;4.07;;
55461;SDS011;41327;45.102;20.624;2024-01-07T02:10:44;4.78;;;4.45;;
55461;SDS011;41327;45.102;20.624;2024-01-07T02:13:10;3.85;;;3.65;;
55461;SDS011;41327;45.102;20.624;2024-01-07T02:15:36;4.25;;;3.90;;
55461;SDS011;41327;45.102;20.624;2024-01-07T02:18:01;4.35;;;4.05;;
55461;SDS011;41327;45.102;20.624;2024-01-07T02:20:27;4.93;;;4.53;;
55461;SDS011;41327;45.102;20.624;2024-01-07T02:22:54;4.90;;;4.50;;
55461;SDS011;41327;45.102;20.624;2024-01-07T02:25:19;5.28;;;4.88;;
55461;SDS011;41327;45.102;20.624;2024-01-07T02:27:45;4.60;;;4.30;;
55461;SDS011;41327;45.102;20.624;2024-01-07T02:30:10;5.07;;;4.55;;
55461;SDS011;41327;45.102;20.624;2024-01-07T02:32:36;4.97;;;4.68;;
55461;SDS011;41327;45.102;20.624;2024-01-07T02:35:03;4.57;;;4.28;;
55461;SDS011;41327;45.102;20.624;2024-01-07T02:37:29;4.93;;;4.53;;
55461;SDS011;41327;45.102;20.624;2024-01-07T02:39:54;4.15;;;3.83;;
55461;SDS011;41327;45.102;20.624;2024-01-07T02:42:20;4.43;;;4.03;;
55461;SDS011;41327;45.102;20.624;2024-01-07T02:44:45;4.40;;;4.20;;
55461;SDS011;41327;45.102;20.624;2024-01-07T02:47:11;4.68;;;4.38;;
55461;SDS011;41327;45.102;20.624;2024-01-07T02:49:37;6.57;;;4.43;;
55461;SDS011;41327;45.102;20.624;2024-01-07T02:52:02;5.43;;;4.20;;
55461;SDS011;41327;45.102;20.624;2024-01-07T02:54:28;4.90;;;4.50;;
55461;SDS011;41327;45.102;20.624;2024-01-07T02:56:53;5.32;;;4.97;;
55461;SDS011;41327;45.102;20.624;2024-01-07T02:59:19;5.15;;;4.63;;
55461;SDS011;41327;45.102;20.624;2024-01-07T03:01:44;4.90;;;4.43;;
55461;SDS011;41327;45.102;20.624;2024-01-07T03:04:10;5.53;;;5.03;;
55461;SDS011;41327;45.102;20.624;2024-01-07T03:06:37;5.93;;;5.47;;
55461;SDS011;41327;45.102;20.624;2024-01-07T03:09:03;6.60;;;6.03;;
55461;SDS011;41327;45.102;20.624;2024-01-07T03:11:28;8.02;;;5.70;;
55461;SDS011;41327;45.102;20.624;2024-01-07T03:13:55;6.53;;;5.93;;
55461;SDS011;41327;45.102;20.624;2024-01-07T03:16:21;5.97;;;5.15;;
55461;SDS011;41327;45.102;20.624;2024-01-07T03:18:47;5.93;;;4.70;;
55461;SDS011;41327;45.102;20.624;2024-01-07T03:21:16;8.18;;;5.50;;
55461;SDS011;41327;45.102;20.624;2024-01-07T03:23:46;5.75;;;5.20;;
55461;SDS011;41327;45.102;20.624;2024-01-07T03:26:12;5.47;;;5.07;;
55461;SDS011;41327;45.102;20.624;2024-01-07T03:28:38;4.88;;;4.57;;
55461;SDS011;41327;45.102;20.624;2024-01-07T03:31:18;4.80;;;4.45;;
55461;SDS011;41327;45.102;20.624;2024-01-07T03:33:44;6.88;;;6.25;;
55461;SDS011;41327;45.102;20.624;2024-01-07T03:36:13;5.70;;;5.20;;
55461;SDS011;41327;45.102;20.624;2024-01-07T03:38:39;5.35;;;4.95;;
55461;SDS011;41327;45.102;20.624;2024-01-07T03:41:05;6.95;;;6.25;;
55461;SDS011;41327;45.102;20.624;2024-01-07T03:43:31;6.80;;;6.15;;
55461;SDS011;41327;45.102;20.624;2024-01-07T03:45:57;7.03;;;6.32;;
55461;SDS011;41327;45.102;20.624;2024-01-07T03:48:22;9.15;;;7.05;;
55461;SDS011;41327;45.102;20.624;2024-01-07T03:50:48;5.95;;;5.47;;
55461;SDS011;41327;45.102;20.624;2024-01-07T03:53:14;6.78;;;6.10;;
55461;SDS011;41327;45.102;20.624;2024-01-07T03:55:40;8.10;;;7.07;;
55461;SDS011;41327;45.102;20.624;2024-01-07T03:58:05;5.45;;;5.03;;
55461;SDS011;41327;45.102;20.624;2024-01-07T04:00:32;8.48;;;5.35;;
55461;SDS011;41327;45.102;20.624;2024-01-07T04:02:57;6.53;;;5.00;;
55461;SDS011;41327;45.102;20.624;2024-01-07T04:05:23;4.75;;;4.47;;
55461;SDS011;41327;45.102;20.624;2024-01-07T04:07:48;6.30;;;4.35;;
55461;SDS011;41327;45.102;20.624;2024-01-07T04:10:17;4.45;;;4.25;;
55461;SDS011;41327;45.102;20.624;2024-01-07T04:12:43;7.95;;;4.97;;
55461;SDS011;41327;45.102;20.624;2024-01-07T04:15:09;4.80;;;4.35;;
55461;SDS011;41327;45.102;20.624;2024-01-07T04:17:36;4.88;;;4.50;;
55461;SDS011;41327;45.102;20.624;2024-01-07T04:20:01;5.57;;;4.63;;
55461;SDS011;41327;45.102;20.624;2024-01-07T04:22:27;5.15;;;4.75;;
55461;SDS011;41327;45.102;20.624;2024-01-07T04:24:52;5.88;;;5.38;;
55461;SDS011;41327;45.102;20.624;2024-01-07T04:27:18;6.57;;;5.97;;
55461;SDS011;41327;45.102;20.624;2024-01-07T04:29:43;8.70;;;6.20;;
55461;SDS011;41327;45.102;20.624;2024-01-07T04:32:09;6.72;;;6.13;;
55461;SDS011;41327;45.102;20.624;2024-01-07T04:34:34;9.15;;;6.68;;
55461;SDS011;41327;45.102;20.624;2024-01-07T04:37:00;10.02;;;7.10;;
55461;SDS011;41327;45.102;20.624;2024-01-07T04:39:25;9.07;;;6.35;;
55461;SDS011;41327;45.102;20.624;2024-01-07T04:41:51;9.65;;;5.85;;
55461;SDS011;41327;45.102;20.624;2024-01-07T04:44:17;6.03;;;5.45;;
55461;SDS011;41327;45.102;20.624;2024-01-07T04:46:42;6.43;;;5.85;;
55461;SDS011;41327;45.102;20.624;2024-01-07T04:49:08;7.18;;;6.47;;
55461;SDS011;41327;45.102;20.624;2024-01-07T04:51:34;5.43;;;5.07;;
55461;SDS011;41327;45.102;20.624;2024-01-07T04:54:01;8.55;;;4.93;;
55461;SDS011;41327;45.102;20.624;2024-01-07T04:56:27;8.02;;;6.18;;
55461;SDS011;41327;45.102;20.624;2024-01-07T04:58:52;9.27;;;6.18;;
55461;SDS011;41327;45.102;20.624;2024-01-07T05:01:18;5.70;;;5.07;;
55461;SDS011;41327;45.102;20.624;2024-01-07T05:03:43;6.03;;;5.45;;
55461;SDS011;41327;45.102;20.624;2024-01-07T05:06:09;6.53;;;5.70;;
55461;SDS011;41327;45.102;20.624;2024-01-07T05:08:35;4.70;;;4.30;;
55461;SDS011;41327;45.102;20.624;2024-01-07T05:11:02;8.00;;;4.63;;
55461;SDS011;41327;45.102;20.624;2024-01-07T05:13:28;5.63;;;5.13;;
55461;SDS011;41327;45.102;20.624;2024-01-07T05:15:54;7.53;;;5.65;;
55461;SDS011;41327;45.102;20.624;2024-01-07T05:18:23;16.55;;;7.55;;
55461;SDS011;41327;45.102;20.624;2024-01-07T05:20:49;21.05;;;6.82;;
55461;SDS011;41327;45.102;20.624;2024-01-07T05:23:15;6.00;;;5.40;;
55461;SDS011;41327;45.102;20.624;2024-01-07T05:25:42;5.95;;;5.45;;
55461;SDS011;41327;45.102;20.624;2024-01-07T05:28:08;9.63;;;6.18;;
55461;SDS011;41327;45.102;20.624;2024-01-07T05:30:34;6.28;;;5.68;;
55461;SDS011;41327;45.102;20.624;2024-01-07T05:32:59;14.80;;;8.68;;
55461;SDS011;41327;45.102;20.624;2024-01-07T05:35:25;8.57;;;6.57;;
55461;SDS011;41327;45.102;20.624;2024-01-07T05:37:50;11.68;;;6.53;;
55461;SDS011;41327;45.102;20.624;2024-01-07T05:40:16;14.35;;;7.22;;
55461;SDS011;41327;45.102;20.624;2024-01-07T05:42:41;8.15;;;7.45;;
55461;SDS011;41327;45.102;20.624;2024-01-07T05:45:07;26.25;;;9.30;;
55461;SDS011;41327;45.102;20.624;2024-01-07T05:47:33;28.67;;;12.35;;
55461;SDS011;41327;45.102;20.624;2024-01-07T05:49:59;19.75;;;11.00;;
55461;SDS011;41327;45.102;20.624;2024-01-07T05:52:24;22.40;;;13.75;;
55461;SDS011;41327;45.102;20.624;2024-01-07T05:54:50;18.95;;;11.15;;
55461;SDS011;41327;45.102;20.624;2024-01-07T05:57:15;30.15;;;15.75;;
55461;SDS011;41327;45.102;20.624;2024-01-07T05:59:43;36.50;;;18.65;;
55461;SDS011;41327;45.102;20.624;2024-01-07T06:02:09;27.77;;;14.45;;
55461;SDS011;41327;45.102;20.624;2024-01-07T06:04:34;28.67;;;14.45;;
55461;SDS011;41327;45.102;20.624;2024-01-07T06:07:00;19.83;;;11.65;;
55461;SDS011;41327;45.102;20.624;2024-01-07T06:09:25;21.63;;;15.70;;
55461;SDS011;41327;45.102;20.624;2024-01-07T06:11:51;28.67;;;14.85;;
55461;SDS011;41327;45.102;20.624;2024-01-07T06:14:17;49.75;;;26.88;;
55461;SDS011;41327;45.102;20.624;2024-01-07T06:16:42;10.38;;;9.32;;
55461;SDS011;41327;45.102;20.624;2024-01-07T06:19:08;21.92;;;14.30;;
55461;SDS011;41327;45.102;20.624;2024-01-07T06:21:33;43.15;;;23.65;;
55461;SDS011;41327;45.102;20.624;2024-01-07T06:23:59;28.25;;;18.13;;
55461;SDS011;41327;45.102;20.624;2024-01-07T06:26:24;24.02;;;16.23;;
55461;SDS011;41327;45.102;20.624;2024-01-07T06:28:50;16.95;;;12.20;;
55461;SDS011;41327;45.102;20.624;2024-01-07T06:31:16;30.55;;;17.55;;
55461;SDS011;41327;45.102;20.624;2024-01-07T06:33:41;36.80;;;18.48;;
55461;SDS011;41327;45.102;20.624;2024-01-07T06:36:08;29.55;;;17.00;;
55461;SDS011;41327;45.102;20.624;2024-01-07T06:38:33;28.50;;;16.00;;
55461;SDS011;41327;45.102;20.624;2024-01-07T06:40:59;21.45;;;14.48;;
55461;SDS011;41327;45.102;20.624;2024-01-07T06:43:28;23.88;;;15.40;;
55461;SDS011;41327;45.102;20.624;2024-01-07T06:45:54;36.42;;;20.52;;
55461;SDS011;41327;45.102;20.624;2024-01-07T06:48:20;29.70;;;15.50;;
55461;SDS011;41327;45.102;20.624;2024-01-07T06:50:45;29.27;;;19.15;;
55461;SDS011;41327;45.102;20.624;2024-01-07T06:53:11;31.92;;;17.08;;
55461;SDS011;41327;45.102;20.624;2024-01-07T06:55:36;42.63;;;19.42;;
55461;SDS011;41327;45.102;20.624;2024-01-07T06:58:02;19.23;;;13.70;;
55461;SDS011;41327;45.102;20.624;2024-01-07T07:00:28;15.85;;;10.40;;
55461;SDS011;41327;45.102;20.624;2024-01-07T07:02:53;12.55;;;11.02;;
55461;SDS011;41327;45.102;20.624;2024-01-07T07:05:20;15.65;;;11.88;;
55461;SDS011;41327;45.102;20.624;2024-01-07T07:07:45;13.00;;;9.63;;
55461;SDS011;41327;45.102;20.624;2024-01-07T07:10:11;16.90;;;9.90;;
55461;SDS011;41327;45.102;20.624;2024-01-07T07:12:36;12.88;;;10.77;;
55461;SDS011;41327;45.102;20.624;2024-01-07T07:15:02;21.40;;;16.15;;
55461;SDS011;41327;45.102;20.624;2024-01-07T07:17:29;38.40;;;24.33;;
55461;SDS011;41327;45.102;20.624;2024-01-07T07:19:54;38.42;;;25.42;;
55461;SDS011;41327;45.102;20.624;2024-01-07T07:22:20;65.93;;;36.95;;
55461;SDS011;41327;45.102;20.624;2024-01-07T07:24:45;115.78;;;55.28;;
55461;SDS011;41327;45.102;20.624;2024-01-07T07:27:11;99.70;;;47.95;;
55461;SDS011;41327;45.102;20.624;2024-01-07T07:29:36;59.58;;;34.42;;
55461;SDS011;41327;45.102;20.624;2024-01-07T07:32:02;41.22;;;24.33;;
55461;SDS011;41327;45.102;20.624;2024-01-07T07:34:27;45.22;;;25.95;;
55461;SDS011;41327;45.102;20.624;2024-01-07T07:36:53;33.47;;;22.00;;
55461;SDS011;41327;45.102;20.624;2024-01-07T07:39:19;40.75;;;23.60;;
55461;SDS011;41327;45.102;20.624;2024-01-07T07:41:45;64.50;;;37.88;;
55461;SDS011;41327;45.102;20.624;2024-01-07T07:44:11;42.25;;;23.80;;
55461;SDS011;41327;45.102;20.624;2024-01-07T07:46:36;90.53;;;45.50;;
55461;SDS011;41327;45.102;20.624;2024-01-07T07:49:02;49.28;;;25.38;;
55461;SDS011;41327;45.102;20.624;2024-01-07T07:51:27;29.52;;;20.77;;
55461;SDS011;41327;45.102;20.624;2024-01-07T07:53:53;100.35;;;47.20;;
55461;SDS011;41327;45.102;20.624;2024-01-07T07:56:19;51.70;;;27.02;;
55461;SDS011;41327;45.102;20.624;2024-01-07T07:58:44;38.05;;;22.00;;
55461;SDS011;41327;45.102;20.624;2024-01-07T08:01:10;22.73;;;15.15;;
55461;SDS011;41327;45.102;20.624;2024-01-07T08:03:35;18.40;;;12.98;;
55461;SDS011;41327;45.102;20.624;2024-01-07T08:06:02;35.25;;;25.00;;
55461;SDS011;41327;45.102;20.624;2024-01-07T08:08:28;13.13;;;10.02;;
55461;SDS011;41327;45.102;20.624;2024-01-07T08:10:53;46.05;;;21.80;;
55461;SDS011;41327;45.102;20.624;2024-01-07T08:13:19;48.65;;;23.48;;
55461;SDS011;41327;45.102;20.624;2024-01-07T08:15:45;19.65;;;14.60;;
55461;SDS011;41327;45.102;20.624;2024-01-07T08:18:10;24.50;;;16.50;;
55461;SDS011;41327;45.102;20.624;2024-01-07T08:20:38;24.98;;;16.77;;
55461;SDS011;41327;45.102;20.624;2024-01-07T08:23:09;47.63;;;24.98;;
55461;SDS011;41327;45.102;20.624;2024-01-07T08:25:35;43.35;;;25.42;;
55461;SDS011;41327;45.102;20.624;2024-01-07T08:28:02;22.73;;;16.27;;
55461;SDS011;41327;45.102;20.624;2024-01-07T08:30:28;14.90;;;11.18;;
55461;SDS011;41327;45.102;20.624;2024-01-07T08:32:54;11.20;;;8.77;;
55461;SDS011;41327;45.102;20.624;2024-01-07T08:35:19;10.40;;;8.30;;
55461;SDS011;41327;45.102;20.624;2024-01-07T08:37:45;14.18;;;12.77;;
55461;SDS011;41327;45.102;20.624;2024-01-07T08:40:12;11.32;;;8.20;;
55461;SDS011;41327;45.102;20.624;2024-01-07T08:42:38;7.82;;;6.95;;
55461;SDS011;41327;45.102;20.624;2024-01-07T08:45:04;12.63;;;9.23;;
55461;SDS011;41327;45.102;20.624;2024-01-07T08:47:31;15.00;;;11.50;;
55461;SDS011;41327;45.102;20.624;2024-01-07T08:49:56;11.15;;;9.55;;
55461;SDS011;41327;45.102;20.624;2024-01-07T08:52:23;17.60;;;13.85;;
55461;SDS011;41327;45.102;20.624;2024-01-07T08:54:49;41.33;;;24.60;;
55461;SDS011;41327;45.102;20.624;2024-01-07T08:57:14;50.90;;;25.70;;
55461;SDS011;41327;45.102;20.624;2024-01-07T08:59:40;38.20;;;19.77;;
55461;SDS011;41327;45.102;20.624;2024-01-07T09:02:06;15.98;;;11.90;;
55461;SDS011;41327;45.102;20.624;2024-01-07T09:04:31;11.10;;;8.57;;
55461;SDS011;41327;45.102;20.624;2024-01-07T09:06:58;32.85;;;20.20;;
55461;SDS011;41327;45.102;20.624;2024-01-07T09:09:24;112.47;;;53.10;;
55461;SDS011;41327;45.102;20.624;2024-01-07T09:11:49;201.10;;;85.90;;
55461;SDS011;41327;45.102;20.624;2024-01-07T09:14:15;101.35;;;42.75;;
55461;SDS011;41327;45.102;20.624;2024-01-07T09:16:41;69.75;;;35.15;;
55461;SDS011;41327;45.102;20.624;2024-01-07T09:19:07;121.65;;;58.13;;
55461;SDS011;41327;45.102;20.624;2024-01-07T09:21:32;208.20;;;85.93;;
55461;SDS011;41327;45.102;20.624;2024-01-07T09:23:59;46.53;;;26.65;;
55461;SDS011;41327;45.102;20.624;2024-01-07T09:26:24;50.47;;;32.35;;
55461;SDS011;41327;45.102;20.624;2024-01-07T09:28:50;34.70;;;22.15;;
55461;SDS011;41327;45.102;20.624;2024-01-07T09:31:17;41.42;;;24.65;;
55461;SDS011;41327;45.102;20.624;2024-01-07T09:33:42;54.35;;;29.17;;
55461;SDS011;41327;45.102;20.624;2024-01-07T09:36:08;39.13;;;22.95;;
55461;SDS011;41327;45.102;20.624;2024-01-07T09:38:33;33.10;;;21.42;;
55461;SDS011;41327;45.102;20.624;2024-01-07T09:41:00;28.05;;;17.63;;
55461;SDS011;41327;45.102;20.624;2024-01-07T09:43:26;23.55;;;16.17;;
55461;SDS011;41327;45.102;20.624;2024-01-07T09:45:52;25.08;;;22.38;;
55461;SDS011;41327;45.102;20.624;2024-01-07T09:48:19;20.88;;;13.43;;
55461;SDS011;41327;45.102;20.624;2024-01-07T09:50:45;18.23;;;14.07;;
55461;SDS011;41327;45.102;20.624;2024-01-07T09:53:11;24.17;;;16.55;;
55461;SDS011;41327;45.102;20.624;2024-01-07T09:56:06;20.00;;;16.20;;
55461;SDS011;41327;45.102;20.624;2024-01-07T09:58:33;24.48;;;18.02;;
55461;SDS011;41327;45.102;20.624;2024-01-07T10:01:00;23.90;;;15.25;;
55461;SDS011;41327;45.102;20.624;2024-01-07T10:03:26;20.90;;;13.10;;
55461;SDS011;41327;45.102;20.624;2024-01-07T10:05:51;29.17;;;19.77;;
55461;SDS011;41327;45.102;20.624;2024-01-07T10:08:17;29.60;;;20.33;;
55461;SDS011;41327;45.102;20.624;2024-01-07T10:10:43;23.52;;;17.00;;
55461;SDS011;41327;45.102;20.624;2024-01-07T10:13:08;28.90;;;19.88;;
55461;SDS011;41327;45.102;20.624;2024-01-07T10:15:34;23.85;;;17.55;;
55461;SDS011;41327;45.102;20.624;2024-01-07T10:18:03;35.20;;;32.05;;
55461;SDS011;41327;45.102;20.624;2024-01-07T10:20:33;23.10;;;20.52;;
55461;SDS011;41327;45.102;20.624;2024-01-07T10:23:09;24.45;;;14.75;;
55461;SDS011;41327;45.102;20.624;2024-01-07T10:25:36;16.98;;;13.15;;
55461;SDS011;41327;45.102;20.624;2024-01-07T10:28:02;18.83;;;15.00;;
55461;SDS011;41327;45.102;20.624;2024-01-07T10:30:30;21.65;;;14.15;;
55461;SDS011;41327;45.102;20.624;2024-01-07T10:32:59;17.48;;;13.75;;
55461;SDS011;41327;45.102;20.624;2024-01-07T10:35:27;14.77;;;13.40;;
55461;SDS011;41327;45.102;20.624;2024-01-07T10:37:55;10.13;;;8.82;;
55461;SDS011;41327;45.102;20.624;2024-01-07T10:40:21;12.60;;;8.55;;
55461;SDS011;41327;45.102;20.624;2024-01-07T10:42:46;19.45;;;11.05;;
55461;SDS011;41327;45.102;20.624;2024-01-07T10:45:13;14.10;;;12.73;;
55461;SDS011;41327;45.102;20.624;2024-01-07T10:47:40;22.90;;;15.63;;
55461;SDS011;41327;45.102;20.624;2024-01-07T10:50:06;35.10;;;16.05;;
55461;SDS011;41327;45.102;20.624;2024-01-07T10:52:34;21.20;;;15.05;;
55461;SDS011;41327;45.102;20.624;2024-01-07T10:55:03;23.05;;;15.15;;
55461;SDS011;41327;45.102;20.624;2024-01-07T10:57:35;21.50;;;15.27;;
55461;SDS011;41327;45.102;20.624;2024-01-07T11:00:15;17.95;;;13.30;;
55461;SDS011;41327;45.102;20.624;2024-01-07T11:02:51;19.67;;;13.27;;
55461;SDS011;41327;45.102;20.624;2024-01-07T11:05:28;21.30;;;12.88;;
55461;SDS011;41327;45.102;20.624;2024-01-07T11:11:10;44.45;;;22.08;;
55461;SDS011;41327;45.102;20.624;2024-01-07T11:13:38;54.22;;;27.05;;
55461;SDS011;41327;45.102;20.624;2024-01-07T11:16:05;54.03;;;26.85;;
55461;SDS011;41327;45.102;20.624;2024-01-07T11:18:37;35.25;;;21.85;;
55461;SDS011;41327;45.102;20.624;2024-01-07T11:21:10;26.38;;;16.52;;
55461;SDS011;41327;45.102;20.624;2024-01-07T11:23:36;13.07;;;11.85;;
55461;SDS011;41327;45.102;20.624;2024-01-07T11:26:08;10.85;;;9.98;;
55461;SDS011;41327;45.102;20.624;2024-01-07T11:28:52;21.67;;;17.73;;
55461;SDS011;41327;45.102;20.624;2024-01-07T11:31:20;13.65;;;10.23;;
55461;SDS011;41327;45.102;20.624;2024-01-07T11:33:47;23.38;;;18.02;;
55461;SDS011;41327;45.102;20.624;2024-01-07T11:36:14;17.83;;;15.50;;
55461;SDS011;41327;45.102;20.624;2024-01-07T11:38:49;17.52;;;10.77;;
55461;SDS011;41327;45.102;20.624;2024-01-07T11:41:15;23.65;;;21.42;;
55461;SDS011;41327;45.102;20.624;2024-01-07T11:43:52;21.63;;;14.18;;
55461;SDS011;41327;45.102;20.624;2024-01-07T11:46:22;19.20;;;13.23;;
55461;SDS011;41327;45.102;20.624;2024-01-07T11:48:49;26.40;;;16.48;;
55461;SDS011;41327;45.102;20.624;2024-01-07T11:51:17;21.30;;;16.73;;
55461;SDS011;41327;45.102;20.624;2024-01-07T11:53:45;35.78;;;19.98;;
55461;SDS011;41327;45.102;20.624;2024-01-07T11:56:13;20.33;;;14.25;;
55461;SDS011;41327;45.102;20.624;2024-01-07T11:58:40;67.90;;;35.40;;
55461;SDS011;41327;45.102;20.624;2024-01-07T12:01:06;55.08;;;29.58;;
55461;SDS011;41327;45.102;20.624;2024-01-07T12:03:31;21.17;;;17.23;;
55461;SDS011;41327;45.102;20.624;2024-01-07T12:05:57;18.98;;;13.63;;
55461;SDS011;41327;45.102;20.624;2024-01-07T12:08:22;24.17;;;14.30;;
55461;SDS011;41327;45.102;20.624;2024-01-07T12:10:48;12.43;;;9.15;;
55461;SDS011;41327;45.102;20.624;2024-01-07T12:13:14;13.90;;;9.07;;
55461;SDS011;41327;45.102;20.624;2024-01-07T12:15:40;12.85;;;8.93;;
55461;SDS011;41327;45.102;20.624;2024-01-07T12:18:05;12.02;;;9.23;;
55461;SDS011;41327;45.102;20.624;2024-01-07T12:20:31;11.40;;;10.23;;
55461;SDS011;41327;45.102;20.624;2024-01-07T12:22:57;16.42;;;12.07;;
55461;SDS011;41327;45.102;20.624;2024-01-07T12:25:24;13.38;;;11.40;;
55461;SDS011;41327;45.102;20.624;2024-01-07T12:27:50;10.48;;;8.90;;
55461;SDS011;41327;45.102;20.624;2024-01-07T12:30:18;13.18;;;11.73;;
55461;SDS011;41327;45.102;20.624;2024-01-07T12:32:44;13.90;;;12.60;;
55461;SDS011;41327;45.102;20.624;2024-01-07T12:35:10;18.25;;;16.70;;
55461;SDS011;41327;45.102;20.624;2024-01-07T12:37:36;12.05;;;10.48;;
55461;SDS011;41327;45.102;20.624;2024-01-07T12:40:03;12.98;;;11.63;;
55461;SDS011;41327;45.102;20.624;2024-01-07T12:42:30;13.30;;;10.98;;
55461;SDS011;41327;45.102;20.624;2024-01-07T12:44:55;13.40;;;12.05;;
55461;SDS011;41327;45.102;20.624;2024-01-07T12:47:21;17.27;;;15.48;;
55461;SDS011;41327;45.102;20.624;2024-01-07T12:49:46;13.98;;;12.73;;
55461;SDS011;41327;45.102;20.624;2024-01-07T12:52:12;12.48;;;10.98;;
55461;SDS011;41327;45.102;20.624;2024-01-07T12:54:37;14.15;;;10.40;;
55461;SDS011;41327;45.102;20.624;2024-01-07T12:57:03;13.95;;;12.43;;
55461;SDS011;41327;45.102;20.624;2024-01-07T12:59:30;17.75;;;15.60;;
55461;SDS011;41327;45.102;20.624;2024-01-07T13:01:56;20.58;;;18.42;;
55461;SDS011;41327;45.102;20.624;2024-01-07T13:04:22;20.02;;;18.02;;
55461;SDS011;41327;45.102;20.624;2024-01-07T13:06:47;16.95;;;13.40;;
55461;SDS011;41327;45.102;20.624;2024-01-07T13:09:13;21.42;;;19.55;;
55461;SDS011;41327;45.102;20.624;2024-01-07T13:11:39;22.10;;;19.98;;
55461;SDS011;41327;45.102;20.624;2024-01-07T13:14:04;15.30;;;12.85;;
55461;SDS011;41327;45.102;20.624;2024-01-07T13:16:31;22.75;;;18.50;;
55461;SDS011;41327;45.102;20.624;2024-01-07T13:18:57;21.35;;;14.30;;
55461;SDS011;41327;45.102;20.624;2024-01-07T13:21:23;14.15;;;12.50;;
55461;SDS011;41327;45.102;20.624;2024-01-07T13:23:48;14.43;;;12.77;;
55461;SDS011;41327;45.102;20.624;2024-01-07T13:26:15;25.20;;;23.10;;
55461;SDS011;41327;45.102;20.624;2024-01-07T13:28:41;14.07;;;11.73;;
55461;SDS011;41327;45.102;20.624;2024-01-07T13:31:07;29.40;;;27.17;;
55461;SDS011;41327;45.102;20.624;2024-01-07T13:33:33;33.95;;;30.70;;
55461;SDS011;41327;45.102;20.624;2024-01-07T13:35:59;23.50;;;16.95;;
55461;SDS011;41327;45.102;20.624;2024-01-07T13:38:25;21.48;;;17.88;;
55461;SDS011;41327;45.102;20.624;2024-01-07T13:40:50;100.13;;;93.50;;
55461;SDS011;41327;45.102;20.624;2024-01-07T13:43:16;21.17;;;13.30;;
55461;SDS011;41327;45.102;20.624;2024-01-07T13:45:44;29.23;;;26.33;;
55461;SDS011;41327;45.102;20.624;2024-01-07T13:48:09;16.00;;;14.48;;
55461;SDS011;41327;45.102;20.624;2024-01-07T13:50:35;43.70;;;40.55;;
55461;SDS011;41327;45.102;20.624;2024-01-07T13:53:01;37.15;;;34.40;;
55461;SDS011;41327;45.102;20.624;2024-01-07T13:55:27;102.00;;;95.15;;
55461;SDS011;41327;45.102;20.624;2024-01-07T13:57:53;23.52;;;21.08;;
55461;SDS011;41327;45.102;20.624;2024-01-07T14:00:20;16.10;;;12.45;;
55461;SDS011;41327;45.102;20.624;2024-01-07T14:02:46;38.80;;;35.47;;
55461;SDS011;41327;45.102;20.624;2024-01-07T14:05:12;22.52;;;20.50;;
55461;SDS011;41327;45.102;20.624;2024-01-07T14:07:39;24.13;;;21.15;;
55461;SDS011;41327;45.102;20.624;2024-01-07T14:10:06;41.78;;;18.85;;
55461;SDS011;41327;45.102;20.624;2024-01-07T14:12:34;31.30;;;22.40;;
55461;SDS011;41327;45.102;20.624;2024-01-07T14:14:59;42.97;;;22.50;;
55461;SDS011;41327;45.102;20.624;2024-01-07T14:17:25;109.57;;;101.05;;